createdAt,value
2019-05-02T00:00:53.577Z,67.37
2019-05-02T00:03:24.298Z,61.53
2019-05-02T00:05:53.111Z,60.63
2019-05-02T00:08:22.732Z,63.48
2019-05-02T00:10:51.985Z,65.08
2019-05-02T00:13:20.777Z,59.67
2019-05-02T00:15:51.050Z,62.73
2019-05-02T00:18:20.610Z,69.75
2019-05-02T00:20:49.342Z,68.02
2019-05-02T00:23:18.250Z,63.68
2019-05-02T00:25:47.266Z,63.25
2019-05-02T00:28:17.542Z,61.80
2019-05-02T00:30:46.350Z,64.80
2019-05-02T00:33:15.030Z,58.58
2019-05-02T00:35:46.089Z,57.88
2019-05-02T00:38:14.183Z,59.75
2019-05-02T00:40:42.873Z,58.08
2019-05-02T00:43:11.603Z,61.10
2019-05-02T00:45:40.263Z,63.52
2019-05-02T00:48:14.415Z,63.73
2019-05-02T00:50:45.430Z,63.87
2019-05-02T00:53:13.604Z,65.20
2019-05-02T00:55:42.252Z,57.98
2019-05-02T00:58:11.007Z,58.52
2019-05-02T01:00:59.842Z,65.25
2019-05-02T01:03:31.982Z,59.35
2019-05-02T01:06:00.127Z,62.70
2019-05-02T01:08:31.004Z,64.72
2019-05-02T01:10:59.292Z,60.33
2019-05-02T01:13:28.008Z,60.20
2019-05-02T01:15:56.671Z,62.17
2019-05-02T01:18:25.454Z,59.20
2019-05-02T01:20:58.250Z,57.50
2019-05-02T01:23:27.564Z,56.90
2019-05-02T01:25:54.960Z,64.60
2019-05-02T01:28:42.688Z,59.67
2019-05-02T01:31:20.214Z,60.40
2019-05-02T01:34:00.209Z,68.25
2019-05-02T01:36:36.753Z,60.20
2019-05-02T01:39:07.600Z,59.23
2019-05-02T01:41:35.691Z,61.63
2019-05-02T01:44:04.765Z,59.13
2019-05-02T01:46:33.456Z,55.90
2019-05-02T01:49:02.124Z,56.65
2019-05-02T01:51:30.791Z,61.58
2019-05-02T01:53:59.486Z,60.38
2019-05-02T01:56:28.598Z,59.10
2019-05-02T01:58:58.956Z,61.77
2019-05-02T02:01:27.951Z,60.43
2019-05-02T02:03:56.625Z,56.13
2019-05-02T02:06:25.297Z,61.90
2019-05-02T02:08:53.956Z,58.35
2019-05-02T02:11:22.721Z,59.88
2019-05-02T02:13:51.380Z,63.78
2019-05-02T02:16:20.067Z,60.08
2019-05-02T02:18:59.036Z,59.60
2019-05-02T02:21:48.286Z,64.53
2019-05-02T02:24:27.261Z,60.85
2019-05-02T02:26:56.525Z,58.75
2019-05-02T02:29:25.199Z,64.25
2019-05-02T02:31:53.945Z,58.48
2019-05-02T02:34:29.000Z,56.95
2019-05-02T02:36:53.353Z,57.83
2019-05-02T02:39:22.019Z,54.18
2019-05-02T02:41:52.153Z,59.63
2019-05-02T02:44:39.849Z,58.02
2019-05-02T02:47:12.096Z,56.40
2019-05-02T02:49:36.952Z,53.63
2019-05-02T02:52:06.878Z,52.60
2019-05-02T02:54:36.575Z,52.27
2019-05-02T02:57:06.109Z,53.83
2019-05-02T02:59:34.757Z,50.43
2019-05-02T03:02:10.093Z,52.83
2019-05-02T03:04:33.897Z,48.45
2019-05-02T03:07:02.560Z,38.95
2019-05-02T03:09:31.370Z,45.65
2019-05-02T03:12:18.073Z,47.58
2019-05-02T03:14:51.365Z,45.00
2019-05-02T03:19:54.488Z,44.45
2019-05-02T03:22:20.467Z,45.48
2019-05-02T03:24:49.154Z,45.85
2019-05-02T03:27:18.030Z,42.93
2019-05-02T03:29:46.789Z,38.42
2019-05-02T03:32:30.654Z,45.10
2019-05-02T03:34:52.521Z,43.40
2019-05-02T03:37:17.740Z,38.75
2019-05-02T03:39:49.639Z,44.53
2019-05-02T03:42:17.645Z,42.62
2019-05-02T03:44:55.071Z,43.42
2019-05-02T03:47:16.776Z,45.40
2019-05-02T03:49:48.894Z,41.00
2019-05-02T03:52:16.090Z,44.58
2019-05-02T03:54:50.127Z,44.30
2019-05-02T03:57:15.507Z,44.63
2019-05-02T03:59:44.189Z,44.73
2019-05-02T04:02:13.993Z,41.63
2019-05-02T04:04:43.892Z,40.80
2019-05-02T04:07:12.857Z,44.10
2019-05-02T04:09:42.597Z,43.87
2019-05-02T04:12:18.513Z,40.78
2019-05-02T04:14:42.576Z,41.73
2019-05-02T04:17:12.010Z,40.63
2019-05-02T04:19:41.616Z,41.75
2019-05-02T04:22:12.068Z,42.43
2019-05-02T04:24:47.332Z,38.78
2019-05-02T04:27:13.100Z,42.13
2019-05-02T04:29:42.563Z,38.23
2019-05-02T04:32:14.156Z,38.95
2019-05-02T04:34:41.693Z,37.17
2019-05-02T04:37:10.412Z,42.48
2019-05-02T04:39:39.343Z,37.93
2019-05-02T04:42:13.349Z,44.08
2019-05-02T04:44:46.391Z,42.70
2019-05-02T04:47:16.604Z,45.03
2019-05-02T04:49:39.520Z,40.08
2019-05-02T04:52:12.453Z,39.95
2019-05-02T04:54:39.065Z,39.55
2019-05-02T04:57:08.690Z,37.13
2019-05-02T04:59:39.561Z,37.78
2019-05-02T05:02:08.977Z,37.05
2019-05-02T05:04:42.339Z,37.20
2019-05-02T05:07:09.290Z,36.48
2019-05-02T05:09:39.870Z,36.93
2019-05-02T05:12:08.826Z,40.45
2019-05-02T05:14:41.292Z,35.50
2019-05-02T05:17:08.114Z,36.48
2019-05-02T05:19:37.349Z,33.75
2019-05-02T05:22:08.854Z,38.98
2019-05-02T05:24:44.963Z,37.40
2019-05-02T05:27:18.990Z,39.75
2019-05-02T05:29:45.999Z,39.83
2019-05-02T05:32:14.761Z,42.48
2019-05-02T05:34:43.447Z,41.08
2019-05-02T05:37:13.536Z,41.25
2019-05-02T05:39:43.048Z,44.30
2019-05-02T05:42:12.767Z,41.08
2019-05-02T05:44:41.426Z,41.70
2019-05-02T05:47:12.120Z,38.30
2019-05-02T05:49:40.500Z,38.83
2019-05-02T05:52:09.267Z,37.48
2019-05-02T05:54:41.889Z,38.42
2019-05-02T05:57:12.233Z,35.13
2019-05-02T05:59:38.737Z,33.33
2019-05-02T06:02:12.679Z,38.05
2019-05-02T06:04:38.701Z,37.42
2019-05-02T06:07:07.629Z,38.90
2019-05-02T06:09:36.368Z,38.23
2019-05-02T06:12:05.071Z,37.23
2019-05-02T06:14:34.538Z,36.45
2019-05-02T06:17:03.550Z,39.08
2019-05-02T06:19:32.255Z,38.53
2019-05-02T06:22:01.020Z,37.28
2019-05-02T06:24:29.680Z,35.48
2019-05-02T06:26:58.368Z,38.45
2019-05-02T06:29:27.075Z,36.45
2019-05-02T06:31:57.325Z,35.95
2019-05-02T06:34:26.268Z,35.75
2019-05-02T06:36:54.960Z,36.45
2019-05-02T06:39:27.060Z,35.60
2019-05-02T06:41:57.551Z,32.78
2019-05-02T06:44:25.434Z,31.55
2019-05-02T06:46:54.183Z,38.60
2019-05-02T06:49:24.895Z,34.80
2019-05-02T06:51:56.231Z,37.05
2019-05-02T06:54:24.142Z,34.63
2019-05-02T06:56:52.879Z,31.95
2019-05-02T06:59:21.623Z,35.33
2019-05-02T07:01:52.402Z,34.15
2019-05-02T07:04:22.775Z,32.45
2019-05-02T07:06:58.845Z,35.73
2019-05-02T07:09:21.942Z,35.70
2019-05-02T07:11:57.852Z,36.33
2019-05-02T07:14:23.433Z,36.45
2019-05-02T07:17:05.829Z,34.45
2019-05-02T07:19:37.697Z,34.57
2019-05-02T07:22:06.439Z,33.02
2019-05-02T07:24:35.197Z,34.98
2019-05-02T07:27:04.151Z,36.23
2019-05-02T07:29:32.824Z,31.42
2019-05-02T07:32:01.500Z,34.20
2019-05-02T07:34:30.216Z,33.67
2019-05-02T07:36:58.856Z,34.58
2019-05-02T07:39:27.584Z,33.45
2019-05-02T07:42:00.456Z,29.63
2019-05-02T07:44:27.170Z,35.78
2019-05-02T07:47:02.607Z,33.25
2019-05-02T07:49:32.152Z,35.23
2019-05-02T07:51:58.950Z,30.92
2019-05-02T07:54:27.646Z,33.63
2019-05-02T07:56:56.335Z,33.48
2019-05-02T07:59:25.144Z,30.15
2019-05-02T08:01:53.993Z,31.87
2019-05-02T08:04:22.701Z,33.73
2019-05-02T08:06:51.377Z,31.17
2019-05-02T08:09:20.036Z,31.42
2019-05-02T08:11:48.829Z,30.57
2019-05-02T08:14:17.550Z,29.32
2019-05-02T08:16:46.199Z,33.85
2019-05-02T08:19:14.876Z,32.08
2019-05-02T08:21:43.590Z,34.25
2019-05-02T08:24:12.244Z,31.55
2019-05-02T08:26:59.721Z,32.25
2019-05-02T08:29:29.266Z,32.13
2019-05-02T08:31:58.825Z,32.38
2019-05-02T08:34:32.273Z,35.58
2019-05-02T08:37:03.225Z,30.68
2019-05-02T08:39:33.951Z,35.10
2019-05-02T08:42:02.615Z,32.48
2019-05-02T08:44:31.285Z,36.30
2019-05-02T08:47:00.994Z,36.55
2019-05-02T08:49:31.122Z,36.42
2019-05-02T08:52:01.249Z,36.23
2019-05-02T08:54:32.812Z,35.23
2019-05-02T08:57:01.334Z,37.88
2019-05-02T08:59:30.009Z,38.70
2019-05-02T09:01:58.672Z,35.48
2019-05-02T09:04:29.058Z,33.35
2019-05-02T09:07:00.500Z,38.38
2019-05-02T09:09:29.529Z,33.48
2019-05-02T09:12:09.720Z,36.73
2019-05-02T09:14:28.751Z,37.08
2019-05-02T09:17:00.321Z,33.80
2019-05-02T09:19:27.833Z,35.20
2019-05-02T09:21:56.492Z,36.80
2019-05-02T09:24:25.177Z,33.48
2019-05-02T09:26:53.838Z,35.78
2019-05-02T09:29:22.511Z,36.17
2019-05-02T09:31:52.751Z,34.63
2019-05-02T09:34:22.790Z,33.60
2019-05-02T09:36:52.912Z,35.33
2019-05-02T09:39:22.689Z,35.78
2019-05-02T09:41:52.731Z,34.30
2019-05-02T09:44:22.377Z,35.03
2019-05-02T09:46:55.209Z,36.33
2019-05-02T09:49:22.141Z,32.50
2019-05-02T09:51:59.200Z,32.05
2019-05-02T09:54:23.162Z,35.48
2019-05-02T09:56:52.477Z,34.45
2019-05-02T09:59:27.774Z,33.63
2019-05-02T10:01:53.643Z,35.58
2019-05-02T10:04:22.520Z,36.63
2019-05-02T10:06:52.518Z,34.80
2019-05-02T10:09:24.088Z,36.10
2019-05-02T10:11:52.571Z,37.73
2019-05-02T10:14:22.713Z,36.50
2019-05-02T10:16:52.931Z,36.80
2019-05-02T10:19:25.881Z,38.17
2019-05-02T10:21:56.172Z,39.08
2019-05-02T10:24:22.874Z,36.85
2019-05-02T10:26:55.268Z,39.35
2019-05-02T10:29:28.151Z,37.00
2019-05-02T10:31:52.778Z,40.63
2019-05-02T10:34:22.603Z,36.70
2019-05-02T10:36:58.591Z,38.60
2019-05-02T10:39:23.416Z,37.30
2019-05-02T10:41:52.724Z,38.88
2019-05-02T10:44:22.701Z,39.70
2019-05-02T10:46:56.158Z,39.40
2019-05-02T10:49:32.128Z,40.03
2019-05-02T10:52:02.610Z,39.00
2019-05-02T10:54:33.675Z,38.70
2019-05-02T10:57:02.363Z,38.40
2019-05-02T10:59:32.785Z,37.88
2019-05-02T11:02:19.642Z,38.13
2019-05-02T11:04:52.437Z,40.17
2019-05-02T11:07:22.643Z,41.50
2019-05-02T11:09:52.593Z,39.88
2019-05-02T11:12:44.485Z,38.25
2019-05-02T11:15:26.903Z,33.85
2019-05-02T11:17:55.603Z,36.30
2019-05-02T11:20:24.269Z,36.98
2019-05-02T11:22:54.636Z,36.48
2019-05-02T11:25:23.464Z,35.98
2019-05-02T11:27:52.609Z,35.23
2019-05-02T11:30:26.374Z,38.67
2019-05-02T11:32:52.157Z,33.73
2019-05-02T11:35:22.367Z,37.63
2019-05-02T11:37:51.726Z,36.93
2019-05-02T11:40:22.683Z,36.05
2019-05-02T11:42:52.173Z,36.88
2019-05-02T11:45:22.709Z,38.83
2019-05-02T11:47:54.445Z,35.90
2019-05-02T11:50:22.146Z,37.00
2019-05-02T11:52:52.324Z,37.67
2019-05-02T11:55:24.752Z,43.13
2019-05-02T11:57:52.370Z,36.13
2019-05-02T12:00:21.849Z,36.20
2019-05-02T12:02:58.861Z,34.33
2019-05-02T12:05:35.651Z,35.63
2019-05-02T12:08:07.713Z,34.92
2019-05-02T12:10:36.619Z,33.53
2019-05-02T12:13:06.707Z,33.38
2019-05-02T12:15:35.658Z,30.82
2019-05-02T12:18:04.777Z,32.42
2019-05-02T12:20:36.591Z,32.53
2019-05-02T12:23:03.928Z,33.63
2019-05-02T12:25:32.894Z,32.30
2019-05-02T12:28:02.348Z,33.53
2019-05-02T12:30:34.085Z,36.55
2019-05-02T12:33:03.932Z,35.38
2019-05-02T12:35:32.622Z,36.15
2019-05-02T12:38:02.718Z,35.90
2019-05-02T12:40:32.586Z,37.90
2019-05-02T12:43:02.463Z,39.53
2019-05-02T12:45:33.587Z,39.05
2019-05-02T12:48:02.426Z,38.98
2019-05-02T12:50:32.206Z,37.90
2019-05-02T12:53:02.792Z,39.38
2019-05-02T12:55:32.607Z,34.45
2019-05-02T12:58:03.099Z,37.55
2019-05-02T13:00:32.126Z,37.05
2019-05-02T13:03:12.236Z,38.48
2019-05-02T13:05:42.603Z,37.53
2019-05-02T13:08:12.303Z,38.20
2019-05-02T13:11:06.634Z,35.35
2019-05-02T13:13:33.224Z,33.53
2019-05-02T13:16:03.756Z,37.78
2019-05-02T13:18:36.326Z,35.38
2019-05-02T13:21:08.123Z,36.03
2019-05-02T13:23:44.286Z,40.50
2019-05-02T13:26:19.805Z,41.28
2019-05-02T13:28:44.181Z,41.02
2019-05-02T13:31:23.354Z,38.98
2019-05-02T13:33:58.722Z,41.50
2019-05-02T13:36:44.040Z,41.88
2019-05-02T13:39:22.072Z,43.73
2019-05-02T13:41:52.180Z,47.30
2019-05-02T13:44:24.652Z,44.20
2019-05-02T13:46:53.621Z,42.33
2019-05-02T13:49:22.452Z,37.25
2019-05-02T13:51:52.109Z,40.67
2019-05-02T13:54:22.085Z,39.60
2019-05-02T13:56:52.899Z,38.15
2019-05-02T13:59:22.464Z,40.43
2019-05-02T14:01:55.890Z,40.65
2019-05-02T14:04:27.691Z,42.10
2019-05-02T14:06:58.904Z,42.20
2019-05-02T14:09:52.694Z,41.18
2019-05-02T14:12:27.221Z,41.13
2019-05-02T14:14:58.657Z,34.75
2019-05-02T14:17:32.448Z,36.17
2019-05-02T14:20:10.450Z,35.95
2019-05-02T14:22:33.847Z,37.08
2019-05-02T14:25:04.140Z,35.52
2019-05-02T14:27:34.680Z,33.50
2019-05-02T14:30:06.192Z,35.80
2019-05-02T14:32:36.115Z,34.13
2019-05-02T14:35:32.600Z,37.60
2019-05-02T14:38:17.610Z,35.33
2019-05-02T14:40:58.796Z,34.60
2019-05-02T14:43:48.356Z,33.90
2019-05-02T14:46:22.140Z,34.40
2019-05-02T14:48:52.782Z,32.98
2019-05-02T14:51:27.567Z,33.58
2019-05-02T14:53:57.394Z,34.50
2019-05-02T14:56:45.911Z,34.53
2019-05-02T14:59:17.902Z,34.38
2019-05-02T15:01:46.734Z,35.50
2019-05-02T15:04:17.529Z,37.05
2019-05-02T15:06:49.518Z,36.65
2019-05-02T15:09:24.829Z,36.28
2019-05-02T15:12:02.397Z,37.13
2019-05-02T15:14:37.491Z,40.05
2019-05-02T15:17:09.546Z,37.03
2019-05-02T15:19:39.565Z,33.65
2019-05-02T15:22:12.460Z,39.08
2019-05-02T15:24:42.433Z,40.00
2019-05-02T15:27:17.690Z,37.05
2019-05-02T15:29:44.091Z,38.38
2019-05-02T15:32:28.354Z,32.60
2019-05-02T15:35:02.997Z,40.78
2019-05-02T15:37:32.218Z,38.67
2019-05-02T15:42:34.189Z,49.70
2019-05-02T15:45:05.644Z,52.65
2019-05-02T15:47:37.126Z,53.00
2019-05-02T15:50:04.261Z,51.10
2019-05-02T15:52:34.705Z,57.25
2019-05-02T15:55:04.273Z,52.78
2019-05-02T15:57:43.076Z,48.65
2019-05-02T16:00:03.921Z,46.15
2019-05-02T16:02:32.966Z,42.53
2019-05-02T16:05:05.074Z,46.90
2019-05-02T16:07:32.634Z,38.95
2019-05-02T16:10:03.849Z,48.25
2019-05-02T16:12:35.960Z,47.30
2019-05-02T16:15:08.419Z,44.88
2019-05-02T16:17:33.437Z,41.92
2019-05-02T16:20:10.835Z,41.77
2019-05-02T16:22:46.238Z,39.60
2019-05-02T16:25:12.209Z,35.78
2019-05-02T16:27:47.757Z,44.75
2019-05-02T16:30:19.181Z,40.08
2019-05-02T16:32:52.431Z,41.02
2019-05-02T16:37:52.305Z,38.15
2019-05-02T16:40:29.783Z,45.48
2019-05-02T16:42:53.767Z,46.83
2019-05-02T16:45:23.282Z,48.00
2019-05-02T16:47:58.800Z,51.55
2019-05-02T16:50:23.059Z,53.75
2019-05-02T16:52:53.356Z,53.70
2019-05-02T16:55:26.623Z,52.08
2019-05-02T16:57:56.860Z,50.80
2019-05-02T17:00:25.571Z,57.03
2019-05-02T17:02:54.301Z,54.05
2019-05-02T17:05:23.109Z,51.92
2019-05-02T17:08:18.621Z,47.93
2019-05-02T17:10:53.793Z,50.85
2019-05-02T17:13:21.463Z,47.48
2019-05-02T17:15:50.025Z,48.63
2019-05-02T17:18:18.713Z,47.83
2019-05-02T17:20:53.538Z,44.48
2019-05-02T17:23:17.871Z,45.25
2019-05-02T17:25:46.647Z,51.13
2019-05-02T17:28:15.322Z,53.00
2019-05-02T17:30:44.061Z,51.85
2019-05-02T17:33:16.069Z,57.75
2019-05-02T17:35:49.300Z,55.15
2019-05-02T17:38:13.899Z,61.65
2019-05-02T17:40:42.561Z,57.23
2019-05-02T17:43:11.450Z,54.18
2019-05-02T17:45:40.262Z,54.65
2019-05-02T17:48:15.704Z,57.80
2019-05-02T17:51:12.451Z,57.48
2019-05-02T17:53:48.107Z,59.40
2019-05-02T17:56:20.304Z,60.63
2019-05-02T17:58:47.455Z,59.23
2019-05-02T18:01:18.879Z,58.42
2019-05-02T18:03:47.557Z,61.35
2019-05-02T18:06:17.389Z,57.20
2019-05-02T18:08:50.631Z,57.33
2019-05-02T18:11:16.482Z,59.48
2019-05-02T18:13:45.167Z,56.63
2019-05-02T18:16:16.615Z,52.90
2019-05-02T18:18:46.773Z,57.27
2019-05-02T18:21:17.747Z,56.08
2019-05-02T18:23:45.139Z,59.00
2019-05-02T18:26:13.813Z,50.20
2019-05-02T18:28:49.066Z,53.73
2019-05-02T18:31:12.968Z,48.42
2019-05-02T18:33:42.574Z,54.45
2019-05-02T18:36:11.341Z,54.55
2019-05-02T18:38:41.716Z,54.18
2019-05-02T18:41:12.057Z,55.70
2019-05-02T18:43:45.093Z,55.48
2019-05-02T18:46:12.756Z,55.88
2019-05-02T18:48:45.768Z,56.48
2019-05-02T18:51:17.247Z,57.30
2019-05-02T18:53:43.025Z,58.30
2019-05-02T18:56:12.452Z,56.50
2019-05-02T18:58:45.190Z,56.58
2019-05-02T19:01:14.014Z,56.88
2019-05-02T19:03:42.308Z,54.90
2019-05-02T19:06:11.699Z,63.98
2019-05-02T19:08:46.631Z,57.13
2019-05-02T19:11:14.168Z,55.85
2019-05-02T19:13:44.429Z,58.90
2019-05-02T19:16:13.362Z,62.90
2019-05-02T19:18:42.517Z,64.40
2019-05-02T19:21:12.527Z,64.58
2019-05-02T19:23:42.608Z,64.92
2019-05-02T19:26:14.977Z,57.98
2019-05-02T19:28:48.296Z,58.87
2019-05-02T19:31:16.955Z,58.17
2019-05-02T19:33:45.698Z,58.08
2019-05-02T19:36:16.471Z,60.20
2019-05-02T19:38:44.889Z,58.80
2019-05-02T19:41:13.648Z,58.78
2019-05-02T19:43:49.443Z,57.00
2019-05-02T19:46:12.775Z,51.98
2019-05-02T19:48:43.074Z,53.68
2019-05-02T19:51:18.683Z,54.80
2019-05-02T19:53:42.675Z,48.40
2019-05-02T19:56:12.770Z,53.25
2019-05-02T19:58:46.475Z,49.88
2019-05-02T20:01:12.659Z,45.52
2019-05-02T20:03:42.440Z,47.38
2019-05-02T20:06:12.816Z,49.75
2019-05-02T20:08:42.022Z,46.83
2019-05-02T20:11:12.608Z,43.85
2019-05-02T20:13:41.420Z,45.50
2019-05-02T20:16:19.355Z,47.90
2019-05-02T20:18:48.036Z,42.08
2019-05-02T20:21:27.398Z,41.05
2019-05-02T20:23:52.475Z,40.15
2019-05-02T20:26:22.141Z,36.50
2019-05-02T20:28:52.806Z,33.20
2019-05-02T20:31:21.742Z,40.85
2019-05-02T20:33:52.006Z,35.75
2019-05-02T20:36:22.704Z,39.67
2019-05-02T20:38:52.566Z,40.90
2019-05-02T20:41:22.422Z,39.18
2019-05-02T20:43:51.673Z,42.85
2019-05-02T20:46:21.835Z,39.08
2019-05-02T20:48:52.554Z,35.43
2019-05-02T20:51:22.781Z,37.13
2019-05-02T20:53:52.557Z,33.05
2019-05-02T20:56:23.055Z,39.18
2019-05-02T20:58:52.689Z,36.95
2019-05-02T21:01:21.810Z,34.43
2019-05-02T21:03:52.176Z,35.65
2019-05-02T21:06:46.245Z,37.35
2019-05-02T21:09:37.192Z,38.38
2019-05-02T21:12:07.237Z,36.50
2019-05-02T21:14:36.087Z,33.88
2019-05-02T21:17:05.087Z,35.03
2019-05-02T21:19:33.878Z,37.08
2019-05-02T21:22:07.301Z,36.48
2019-05-02T21:24:36.073Z,37.17
2019-05-02T21:27:04.872Z,39.92
2019-05-02T21:29:33.537Z,37.65
2019-05-02T21:32:02.291Z,38.10
2019-05-02T21:34:31.832Z,32.88
2019-05-02T21:37:02.468Z,37.00
2019-05-02T21:39:31.905Z,36.42
2019-05-02T21:42:02.343Z,37.38
2019-05-02T21:44:31.614Z,23.27
2019-05-02T21:47:02.479Z,16.20
2019-05-02T21:49:42.990Z,15.30
2019-05-02T21:52:27.324Z,14.85
2019-05-02T21:55:06.377Z,11.97
2019-05-02T21:57:35.023Z,13.48
2019-05-02T22:00:05.907Z,10.93
2019-05-02T22:02:34.733Z,12.00
2019-05-02T22:05:03.759Z,10.93
2019-05-02T22:07:32.446Z,10.45
2019-05-02T22:10:02.982Z,11.10
2019-05-02T22:12:31.842Z,11.03
2019-05-02T22:15:02.321Z,8.78
2019-05-02T22:17:32.264Z,10.00
2019-05-02T22:20:01.807Z,11.65
2019-05-02T22:22:32.125Z,11.10
2019-05-02T22:25:02.209Z,11.20
2019-05-02T22:27:32.505Z,12.55
2019-05-02T22:30:02.090Z,9.20
2019-05-02T22:32:32.130Z,10.88
2019-05-02T22:35:01.813Z,10.60
2019-05-02T22:37:32.615Z,10.93
2019-05-02T22:40:05.162Z,9.93
2019-05-02T22:42:33.811Z,8.67
2019-05-02T22:45:04.629Z,8.53
2019-05-02T22:47:32.857Z,7.62
2019-05-02T22:50:01.509Z,9.00
2019-05-02T22:52:32.153Z,8.03
2019-05-02T22:55:02.862Z,6.95
2019-05-02T22:57:31.831Z,7.05
2019-05-02T23:00:01.930Z,7.33
2019-05-02T23:02:32.481Z,6.95
2019-05-02T23:05:01.934Z,7.28
2019-05-02T23:07:30.887Z,7.30
2019-05-02T23:09:59.543Z,6.30
2019-05-02T23:12:28.221Z,7.15
2019-05-02T23:14:56.916Z,5.05
2019-05-02T23:17:25.558Z,6.75
2019-05-02T23:19:54.207Z,6.55
2019-05-02T23:22:22.886Z,5.85
2019-05-02T23:25:09.374Z,6.20
2019-05-02T23:27:45.153Z,6.25
2019-05-02T23:30:16.973Z,6.75
2019-05-02T23:32:45.625Z,6.22
2019-05-02T23:35:15.158Z,5.83
2019-05-02T23:37:43.830Z,6.22
2019-05-02T23:40:12.694Z,7.15
2019-05-02T23:42:41.774Z,6.33
2019-05-02T23:45:12.121Z,6.50
2019-05-02T23:47:42.157Z,6.40
2019-05-02T23:50:12.133Z,6.42
2019-05-02T23:52:40.948Z,7.65
2019-05-02T23:55:09.766Z,6.37
2019-05-02T23:57:38.518Z,6.65
